sensor_id;sensor_type;location;lat;lon;timestamp;P1;durP1;ratioP1;P2;durP2;ratioP2
20525;SDS011;10421;49.142;9.232;2023-10-13T00:01:46;11.83;;;6.20;;
20525;SDS011;10421;49.142;9.232;2023-10-13T00:04:13;22.93;;;6.90;;
20525;SDS011;10421;49.142;9.232;2023-10-13T00:06:40;10.60;;;6.20;;
20525;SDS011;10421;49.142;9.232;2023-10-13T00:09:08;26.23;;;8.20;;
20525;SDS011;10421;49.142;9.232;2023-10-13T00:11:40;12.33;;;6.63;;
20525;SDS011;10421;49.142;9.232;2023-10-13T00:14:09;19.77;;;7.63;;
20525;SDS011;10421;49.142;9.232;2023-10-13T00:16:39;14.60;;;6.80;;
20525;SDS011;10421;49.142;9.232;2023-10-13T00:19:06;13.27;;;6.40;;
20525;SDS011;10421;49.142;9.232;2023-10-13T00:21:35;17.93;;;6.90;;
20525;SDS011;10421;49.142;9.232;2023-10-13T00:24:01;13.90;;;6.57;;
20525;SDS011;10421;49.142;9.232;2023-10-13T00:26:31;13.67;;;7.30;;
20525;SDS011;10421;49.142;9.232;2023-10-13T00:29:01;15.67;;;6.50;;
20525;SDS011;10421;49.142;9.232;2023-10-13T00:31:41;17.77;;;6.80;;
20525;SDS011;10421;49.142;9.232;2023-10-13T00:34:09;13.77;;;6.97;;
20525;SDS011;10421;49.142;9.232;2023-10-13T00:36:37;30.47;;;7.73;;
20525;SDS011;10421;49.142;9.232;2023-10-13T00:39:12;11.33;;;6.50;;
20525;SDS011;10421;49.142;9.232;2023-10-13T00:41:41;15.30;;;6.73;;
20525;SDS011;10421;49.142;9.232;2023-10-13T00:44:17;15.03;;;6.90;;
20525;SDS011;10421;49.142;9.232;2023-10-13T00:46:52;10.80;;;6.00;;
20525;SDS011;10421;49.142;9.232;2023-10-13T00:49:21;17.20;;;7.23;;
20525;SDS011;10421;49.142;9.232;2023-10-13T00:51:48;10.87;;;5.73;;
20525;SDS011;10421;49.142;9.232;2023-10-13T00:54:15;25.40;;;8.07;;
20525;SDS011;10421;49.142;9.232;2023-10-13T00:56:43;14.40;;;6.53;;
20525;SDS011;10421;49.142;9.232;2023-10-13T00:59:14;13.30;;;6.47;;
20525;SDS011;10421;49.142;9.232;2023-10-13T01:01:41;16.80;;;7.13;;
20525;SDS011;10421;49.142;9.232;2023-10-13T01:04:09;13.47;;;6.90;;
20525;SDS011;10421;49.142;9.232;2023-10-13T01:06:39;16.43;;;7.47;;
20525;SDS011;10421;49.142;9.232;2023-10-13T01:09:07;16.20;;;6.43;;
20525;SDS011;10421;49.142;9.232;2023-10-13T01:11:38;22.23;;;7.30;;
20525;SDS011;10421;49.142;9.232;2023-10-13T01:14:08;17.67;;;7.50;;
20525;SDS011;10421;49.142;9.232;2023-10-13T01:16:36;15.23;;;6.37;;
20525;SDS011;10421;49.142;9.232;2023-10-13T01:19:05;14.10;;;6.90;;
20525;SDS011;10421;49.142;9.232;2023-10-13T01:21:33;16.80;;;7.07;;
20525;SDS011;10421;49.142;9.232;2023-10-13T01:24:01;20.70;;;7.20;;
20525;SDS011;10421;49.142;9.232;2023-10-13T01:26:32;16.93;;;6.90;;
20525;SDS011;10421;49.142;9.232;2023-10-13T01:29:03;16.30;;;7.37;;
20525;SDS011;10421;49.142;9.232;2023-10-13T01:31:37;21.93;;;7.53;;
20525;SDS011;10421;49.142;9.232;2023-10-13T01:34:10;12.27;;;6.30;;
20525;SDS011;10421;49.142;9.232;2023-10-13T01:36:38;28.70;;;8.60;;
20525;SDS011;10421;49.142;9.232;2023-10-13T01:39:06;16.33;;;7.27;;
20525;SDS011;10421;49.142;9.232;2023-10-13T01:41:35;22.83;;;7.73;;
20525;SDS011;10421;49.142;9.232;2023-10-13T01:44:04;19.27;;;7.33;;
20525;SDS011;10421;49.142;9.232;2023-10-13T01:46:31;18.27;;;6.93;;
20525;SDS011;10421;49.142;9.232;2023-10-13T01:48:57;28.13;;;8.80;;
20525;SDS011;10421;49.142;9.232;2023-10-13T01:51:24;18.37;;;7.37;;
20525;SDS011;10421;49.142;9.232;2023-10-13T01:53:52;12.70;;;6.60;;
20525;SDS011;10421;49.142;9.232;2023-10-13T01:56:22;17.20;;;7.70;;
20525;SDS011;10421;49.142;9.232;2023-10-13T01:58:48;15.10;;;7.23;;
20525;SDS011;10421;49.142;9.232;2023-10-13T02:01:15;15.33;;;6.57;;
20525;SDS011;10421;49.142;9.232;2023-10-13T02:03:51;14.30;;;6.47;;
20525;SDS011;10421;49.142;9.232;2023-10-13T02:06:26;20.27;;;8.47;;
20525;SDS011;10421;49.142;9.232;2023-10-13T02:08:57;23.17;;;8.07;;
20525;SDS011;10421;49.142;9.232;2023-10-13T02:11:31;14.93;;;7.20;;
20525;SDS011;10421;49.142;9.232;2023-10-13T02:13:57;23.93;;;7.93;;
20525;SDS011;10421;49.142;9.232;2023-10-13T02:16:25;16.97;;;8.00;;
20525;SDS011;10421;49.142;9.232;2023-10-13T02:18:51;19.30;;;8.23;;
20525;SDS011;10421;49.142;9.232;2023-10-13T02:21:18;29.63;;;8.77;;
20525;SDS011;10421;49.142;9.232;2023-10-13T02:23:43;16.03;;;7.30;;
20525;SDS011;10421;49.142;9.232;2023-10-13T02:26:11;19.93;;;7.17;;
20525;SDS011;10421;49.142;9.232;2023-10-13T02:28:41;17.43;;;8.10;;
20525;SDS011;10421;49.142;9.232;2023-10-13T02:31:09;14.53;;;6.33;;
20525;SDS011;10421;49.142;9.232;2023-10-13T02:33:36;14.30;;;7.13;;
20525;SDS011;10421;49.142;9.232;2023-10-13T02:36:10;12.33;;;6.83;;
20525;SDS011;10421;49.142;9.232;2023-10-13T02:38:37;11.07;;;6.93;;
20525;SDS011;10421;49.142;9.232;2023-10-13T02:41:11;21.60;;;7.80;;
20525;SDS011;10421;49.142;9.232;2023-10-13T02:43:37;19.70;;;7.50;;
20525;SDS011;10421;49.142;9.232;2023-10-13T02:46:06;15.13;;;7.13;;
20525;SDS011;10421;49.142;9.232;2023-10-13T02:48:32;13.30;;;5.57;;
20525;SDS011;10421;49.142;9.232;2023-10-13T02:51:05;14.60;;;7.13;;
20525;SDS011;10421;49.142;9.232;2023-10-13T02:53:40;14.70;;;6.20;;
20525;SDS011;10421;49.142;9.232;2023-10-13T02:56:07;13.20;;;7.07;;
20525;SDS011;10421;49.142;9.232;2023-10-13T02:58:33;13.63;;;7.37;;
20525;SDS011;10421;49.142;9.232;2023-10-13T03:01:08;15.47;;;7.60;;
20525;SDS011;10421;49.142;9.232;2023-10-13T03:03:42;12.23;;;6.83;;
20525;SDS011;10421;49.142;9.232;2023-10-13T03:06:12;20.13;;;7.90;;
20525;SDS011;10421;49.142;9.232;2023-10-13T03:08:39;15.03;;;6.80;;
20525;SDS011;10421;49.142;9.232;2023-10-13T03:11:08;16.27;;;6.70;;
20525;SDS011;10421;49.142;9.232;2023-10-13T03:13:34;22.33;;;8.37;;
20525;SDS011;10421;49.142;9.232;2023-10-13T03:16:10;20.00;;;7.60;;
20525;SDS011;10421;49.142;9.232;2023-10-13T03:18:40;14.13;;;6.70;;
20525;SDS011;10421;49.142;9.232;2023-10-13T03:21:16;18.93;;;7.00;;
20525;SDS011;10421;49.142;9.232;2023-10-13T03:23:53;12.73;;;7.07;;
20525;SDS011;10421;49.142;9.232;2023-10-13T03:26:20;18.40;;;7.60;;
20525;SDS011;10421;49.142;9.232;2023-10-13T03:28:46;18.87;;;7.73;;
20525;SDS011;10421;49.142;9.232;2023-10-13T03:31:18;14.83;;;7.10;;
20525;SDS011;10421;49.142;9.232;2023-10-13T03:33:44;17.00;;;7.73;;
20525;SDS011;10421;49.142;9.232;2023-10-13T03:36:11;19.33;;;7.27;;
20525;SDS011;10421;49.142;9.232;2023-10-13T03:38:59;19.57;;;7.23;;
20525;SDS011;10421;49.142;9.232;2023-10-13T03:41:25;20.83;;;8.00;;
20525;SDS011;10421;49.142;9.232;2023-10-13T03:43:55;12.27;;;6.97;;
20525;SDS011;10421;49.142;9.232;2023-10-13T03:46:35;13.50;;;7.23;;
20525;SDS011;10421;49.142;9.232;2023-10-13T03:49:06;18.03;;;7.37;;
20525;SDS011;10421;49.142;9.232;2023-10-13T03:51:38;22.63;;;7.90;;
20525;SDS011;10421;49.142;9.232;2023-10-13T03:54:05;20.23;;;7.67;;
20525;SDS011;10421;49.142;9.232;2023-10-13T03:56:33;17.07;;;6.90;;
20525;SDS011;10421;49.142;9.232;2023-10-13T03:59:05;14.83;;;7.47;;
20525;SDS011;10421;49.142;9.232;2023-10-13T04:01:36;23.93;;;8.57;;
20525;SDS011;10421;49.142;9.232;2023-10-13T04:04:11;18.20;;;8.33;;
20525;SDS011;10421;49.142;9.232;2023-10-13T04:06:40;18.40;;;8.03;;
20525;SDS011;10421;49.142;9.232;2023-10-13T04:09:17;17.43;;;8.23;;
20525;SDS011;10421;49.142;9.232;2023-10-13T04:12:02;17.73;;;7.37;;
20525;SDS011;10421;49.142;9.232;2023-10-13T04:15:08;19.77;;;7.67;;
20525;SDS011;10421;49.142;9.232;2023-10-13T04:17:44;18.20;;;7.67;;
20525;SDS011;10421;49.142;9.232;2023-10-13T04:20:13;14.83;;;7.37;;
20525;SDS011;10421;49.142;9.232;2023-10-13T04:22:52;15.10;;;7.23;;
20525;SDS011;10421;49.142;9.232;2023-10-13T04:25:36;16.17;;;7.37;;
20525;SDS011;10421;49.142;9.232;2023-10-13T04:28:30;19.40;;;7.60;;
20525;SDS011;10421;49.142;9.232;2023-10-13T04:31:15;22.70;;;8.73;;
20525;SDS011;10421;49.142;9.232;2023-10-13T04:34:05;18.60;;;7.80;;
20525;SDS011;10421;49.142;9.232;2023-10-13T04:36:40;18.27;;;7.40;;
20525;SDS011;10421;49.142;9.232;2023-10-13T04:39:11;21.57;;;8.00;;
20525;SDS011;10421;49.142;9.232;2023-10-13T04:41:42;16.60;;;8.13;;
20525;SDS011;10421;49.142;9.232;2023-10-13T04:44:23;30.23;;;9.70;;
20525;SDS011;10421;49.142;9.232;2023-10-13T04:47:04;19.07;;;8.10;;
20525;SDS011;10421;49.142;9.232;2023-10-13T04:49:40;17.93;;;7.50;;
20525;SDS011;10421;49.142;9.232;2023-10-13T04:52:17;19.13;;;8.30;;
20525;SDS011;10421;49.142;9.232;2023-10-13T04:55:02;18.70;;;8.20;;
20525;SDS011;10421;49.142;9.232;2023-10-13T04:57:41;13.07;;;7.03;;
20525;SDS011;10421;49.142;9.232;2023-10-13T05:00:12;24.00;;;9.10;;
20525;SDS011;10421;49.142;9.232;2023-10-13T05:02:57;10.53;;;6.83;;
20525;SDS011;10421;49.142;9.232;2023-10-13T05:05:43;27.23;;;8.50;;
20525;SDS011;10421;49.142;9.232;2023-10-13T05:08:31;18.67;;;7.60;;
20525;SDS011;10421;49.142;9.232;2023-10-13T05:11:15;33.70;;;9.83;;
20525;SDS011;10421;49.142;9.232;2023-10-13T05:13:59;33.43;;;8.90;;
20525;SDS011;10421;49.142;9.232;2023-10-13T05:16:55;15.23;;;7.40;;
20525;SDS011;10421;49.142;9.232;2023-10-13T05:19:39;34.90;;;9.17;;
20525;SDS011;10421;49.142;9.232;2023-10-13T05:22:25;25.73;;;8.43;;
20525;SDS011;10421;49.142;9.232;2023-10-13T05:25:09;22.70;;;7.73;;
20525;SDS011;10421;49.142;9.232;2023-10-13T05:27:53;29.73;;;8.30;;
20525;SDS011;10421;49.142;9.232;2023-10-13T05:30:37;17.50;;;7.50;;
20525;SDS011;10421;49.142;9.232;2023-10-13T05:33:22;37.23;;;10.03;;
20525;SDS011;10421;49.142;9.232;2023-10-13T05:36:09;32.37;;;9.40;;
20525;SDS011;10421;49.142;9.232;2023-10-13T05:38:55;33.00;;;9.03;;
20525;SDS011;10421;49.142;9.232;2023-10-13T05:41:39;38.70;;;9.23;;
20525;SDS011;10421;49.142;9.232;2023-10-13T05:44:23;36.57;;;9.40;;
20525;SDS011;10421;49.142;9.232;2023-10-13T05:47:02;23.57;;;7.70;;
20525;SDS011;10421;49.142;9.232;2023-10-13T05:49:43;33.73;;;8.50;;
20525;SDS011;10421;49.142;9.232;2023-10-13T05:52:18;24.60;;;7.77;;
20525;SDS011;10421;49.142;9.232;2023-10-13T05:54:46;18.17;;;7.10;;
20525;SDS011;10421;49.142;9.232;2023-10-13T05:57:30;26.80;;;9.07;;
20525;SDS011;10421;49.142;9.232;2023-10-13T06:00:14;24.93;;;8.97;;
20525;SDS011;10421;49.142;9.232;2023-10-13T06:02:59;38.47;;;10.77;;
20525;SDS011;10421;49.142;9.232;2023-10-13T06:05:43;30.57;;;8.80;;
20525;SDS011;10421;49.142;9.232;2023-10-13T06:08:27;30.43;;;9.23;;
20525;SDS011;10421;49.142;9.232;2023-10-13T06:11:13;28.73;;;8.80;;
20525;SDS011;10421;49.142;9.232;2023-10-13T06:13:57;21.37;;;7.37;;
20525;SDS011;10421;49.142;9.232;2023-10-13T06:16:42;27.33;;;8.43;;
20525;SDS011;10421;49.142;9.232;2023-10-13T06:19:26;23.80;;;8.17;;
20525;SDS011;10421;49.142;9.232;2023-10-13T06:22:10;25.50;;;9.03;;
20525;SDS011;10421;49.142;9.232;2023-10-13T06:24:54;20.53;;;8.23;;
20525;SDS011;10421;49.142;9.232;2023-10-13T06:27:39;15.40;;;7.70;;
20525;SDS011;10421;49.142;9.232;2023-10-13T06:30:23;36.63;;;9.83;;
20525;SDS011;10421;49.142;9.232;2023-10-13T06:32:50;18.23;;;7.57;;
20525;SDS011;10421;49.142;9.232;2023-10-13T06:35:18;22.90;;;8.50;;
20525;SDS011;10421;49.142;9.232;2023-10-13T06:37:48;35.63;;;10.40;;
20525;SDS011;10421;49.142;9.232;2023-10-13T06:40:15;22.10;;;8.70;;
20525;SDS011;10421;49.142;9.232;2023-10-13T06:42:52;19.30;;;7.80;;
20525;SDS011;10421;49.142;9.232;2023-10-13T06:45:20;36.43;;;10.10;;
20525;SDS011;10421;49.142;9.232;2023-10-13T06:47:47;40.33;;;10.80;;
20525;SDS011;10421;49.142;9.232;2023-10-13T06:50:18;26.03;;;8.70;;
20525;SDS011;10421;49.142;9.232;2023-10-13T06:52:49;35.73;;;9.90;;
20525;SDS011;10421;49.142;9.232;2023-10-13T06:55:19;41.67;;;10.90;;
20525;SDS011;10421;49.142;9.232;2023-10-13T06:57:53;18.73;;;7.57;;
20525;SDS011;10421;49.142;9.232;2023-10-13T07:00:24;26.80;;;9.00;;
20525;SDS011;10421;49.142;9.232;2023-10-13T07:02:54;25.07;;;9.33;;
20525;SDS011;10421;49.142;9.232;2023-10-13T07:05:33;22.60;;;8.30;;
20525;SDS011;10421;49.142;9.232;2023-10-13T07:08:03;31.77;;;9.23;;
20525;SDS011;10421;49.142;9.232;2023-10-13T07:10:30;25.30;;;9.50;;
20525;SDS011;10421;49.142;9.232;2023-10-13T07:13:10;17.50;;;8.60;;
20525;SDS011;10421;49.142;9.232;2023-10-13T07:15:38;25.43;;;8.97;;
20525;SDS011;10421;49.142;9.232;2023-10-13T07:18:10;23.30;;;8.97;;
20525;SDS011;10421;49.142;9.232;2023-10-13T07:20:38;21.70;;;8.27;;
20525;SDS011;10421;49.142;9.232;2023-10-13T07:23:08;28.50;;;9.30;;
20525;SDS011;10421;49.142;9.232;2023-10-13T07:25:37;24.60;;;9.17;;
20525;SDS011;10421;49.142;9.232;2023-10-13T07:28:06;16.10;;;8.17;;
20525;SDS011;10421;49.142;9.232;2023-10-13T07:30:35;25.53;;;8.37;;
20525;SDS011;10421;49.142;9.232;2023-10-13T07:33:07;34.97;;;7.57;;
20525;SDS011;10421;49.142;9.232;2023-10-13T07:35:38;29.53;;;7.60;;
20525;SDS011;10421;49.142;9.232;2023-10-13T07:38:06;15.23;;;5.40;;
20525;SDS011;10421;49.142;9.232;2023-10-13T07:40:34;22.87;;;6.30;;
20525;SDS011;10421;49.142;9.232;2023-10-13T07:43:06;23.20;;;6.00;;
20525;SDS011;10421;49.142;9.232;2023-10-13T07:45:37;35.13;;;7.00;;
20525;SDS011;10421;49.142;9.232;2023-10-13T07:48:06;18.37;;;5.13;;
20525;SDS011;10421;49.142;9.232;2023-10-13T07:50:37;19.17;;;5.50;;
20525;SDS011;10421;49.142;9.232;2023-10-13T07:53:04;29.83;;;6.20;;
20525;SDS011;10421;49.142;9.232;2023-10-13T07:55:47;21.70;;;5.80;;
20525;SDS011;10421;49.142;9.232;2023-10-13T07:58:19;27.97;;;6.23;;
20525;SDS011;10421;49.142;9.232;2023-10-13T08:00:51;30.67;;;6.23;;
20525;SDS011;10421;49.142;9.232;2023-10-13T08:03:31;30.53;;;6.20;;
20525;SDS011;10421;49.142;9.232;2023-10-13T08:06:00;17.77;;;4.93;;
20525;SDS011;10421;49.142;9.232;2023-10-13T08:08:32;31.03;;;6.00;;
20525;SDS011;10421;49.142;9.232;2023-10-13T08:11:04;30.80;;;7.00;;
20525;SDS011;10421;49.142;9.232;2023-10-13T08:13:36;18.13;;;5.07;;
20525;SDS011;10421;49.142;9.232;2023-10-13T08:16:05;13.80;;;4.30;;
20525;SDS011;10421;49.142;9.232;2023-10-13T08:18:34;34.17;;;6.50;;
20525;SDS011;10421;49.142;9.232;2023-10-13T08:21:02;10.43;;;4.50;;
20525;SDS011;10421;49.142;9.232;2023-10-13T08:23:29;25.33;;;6.30;;
20525;SDS011;10421;49.142;9.232;2023-10-13T08:26:15;11.70;;;4.27;;
20525;SDS011;10421;49.142;9.232;2023-10-13T08:29:18;21.13;;;5.57;;
20525;SDS011;10421;49.142;9.232;2023-10-13T08:32:04;19.33;;;5.40;;
20525;SDS011;10421;49.142;9.232;2023-10-13T08:34:40;21.33;;;4.90;;
20525;SDS011;10421;49.142;9.232;2023-10-13T08:37:25;16.23;;;4.80;;
20525;SDS011;10421;49.142;9.232;2023-10-13T08:39:54;24.47;;;5.10;;
20525;SDS011;10421;49.142;9.232;2023-10-13T08:42:45;18.00;;;4.77;;
20525;SDS011;10421;49.142;9.232;2023-10-13T08:45:36;12.23;;;4.63;;
20525;SDS011;10421;49.142;9.232;2023-10-13T08:48:20;13.73;;;4.33;;
20525;SDS011;10421;49.142;9.232;2023-10-13T08:50:56;12.80;;;4.70;;
20525;SDS011;10421;49.142;9.232;2023-10-13T08:53:29;13.77;;;4.27;;
20525;SDS011;10421;49.142;9.232;2023-10-13T08:55:58;18.03;;;5.27;;
20525;SDS011;10421;49.142;9.232;2023-10-13T08:58:40;18.10;;;4.17;;
20525;SDS011;10421;49.142;9.232;2023-10-13T09:01:31;13.43;;;4.50;;
20525;SDS011;10421;49.142;9.232;2023-10-13T09:04:12;16.13;;;5.00;;
20525;SDS011;10421;49.142;9.232;2023-10-13T09:06:46;17.77;;;4.80;;
20525;SDS011;10421;49.142;9.232;2023-10-13T09:09:28;16.40;;;4.60;;
20525;SDS011;10421;49.142;9.232;2023-10-13T09:12:00;13.33;;;4.27;;
20525;SDS011;10421;49.142;9.232;2023-10-13T09:14:35;15.10;;;5.00;;
20525;SDS011;10421;49.142;9.232;2023-10-13T09:17:03;16.53;;;4.90;;
20525;SDS011;10421;49.142;9.232;2023-10-13T09:22:49;19.97;;;5.53;;
20525;SDS011;10421;49.142;9.232;2023-10-13T09:25:21;9.53;;;4.30;;
20525;SDS011;10421;49.142;9.232;2023-10-13T09:27:48;26.20;;;5.70;;
20525;SDS011;10421;49.142;9.232;2023-10-13T09:30:18;33.00;;;6.63;;
20525;SDS011;10421;49.142;9.232;2023-10-13T09:32:48;14.17;;;4.77;;
20525;SDS011;10421;49.142;9.232;2023-10-13T09:35:28;23.77;;;5.73;;
20525;SDS011;10421;49.142;9.232;2023-10-13T09:37:59;18.80;;;5.10;;
20525;SDS011;10421;49.142;9.232;2023-10-13T09:40:27;24.37;;;5.37;;
20525;SDS011;10421;49.142;9.232;2023-10-13T09:43:03;10.27;;;3.93;;
20525;SDS011;10421;49.142;9.232;2023-10-13T09:45:32;15.40;;;5.03;;
20525;SDS011;10421;49.142;9.232;2023-10-13T09:48:01;21.83;;;5.90;;
20525;SDS011;10421;49.142;9.232;2023-10-13T09:50:32;18.03;;;5.33;;
20525;SDS011;10421;49.142;9.232;2023-10-13T09:53:06;20.07;;;4.80;;
20525;SDS011;10421;49.142;9.232;2023-10-13T09:55:35;19.53;;;5.20;;
20525;SDS011;10421;49.142;9.232;2023-10-13T09:58:09;28.43;;;6.43;;
20525;SDS011;10421;49.142;9.232;2023-10-13T10:00:40;15.43;;;4.63;;
20525;SDS011;10421;49.142;9.232;2023-10-13T10:03:21;24.03;;;5.83;;
20525;SDS011;10421;49.142;9.232;2023-10-13T10:06:06;23.20;;;5.60;;
20525;SDS011;10421;49.142;9.232;2023-10-13T10:08:38;15.53;;;4.33;;
20525;SDS011;10421;49.142;9.232;2023-10-13T10:14:16;9.70;;;3.60;;
20525;SDS011;10421;49.142;9.232;2023-10-13T10:16:54;20.20;;;4.80;;
20525;SDS011;10421;49.142;9.232;2023-10-13T10:19:32;22.03;;;5.10;;
20525;SDS011;10421;49.142;9.232;2023-10-13T10:22:02;30.67;;;5.63;;
20525;SDS011;10421;49.142;9.232;2023-10-13T10:24:41;28.33;;;6.23;;
20525;SDS011;10421;49.142;9.232;2023-10-13T10:27:08;19.90;;;5.10;;
20525;SDS011;10421;49.142;9.232;2023-10-13T10:29:39;24.27;;;5.03;;
20525;SDS011;10421;49.142;9.232;2023-10-13T10:32:11;30.73;;;5.73;;
20525;SDS011;10421;49.142;9.232;2023-10-13T10:34:39;20.50;;;5.30;;
20525;SDS011;10421;49.142;9.232;2023-10-13T10:37:08;24.00;;;5.20;;
20525;SDS011;10421;49.142;9.232;2023-10-13T10:39:35;32.73;;;6.63;;
20525;SDS011;10421;49.142;9.232;2023-10-13T10:42:10;47.10;;;8.47;;
20525;SDS011;10421;49.142;9.232;2023-10-13T10:44:42;16.00;;;4.60;;
20525;SDS011;10421;49.142;9.232;2023-10-13T10:47:11;27.77;;;5.80;;
20525;SDS011;10421;49.142;9.232;2023-10-13T10:49:44;20.23;;;5.67;;
20525;SDS011;10421;49.142;9.232;2023-10-13T10:52:16;13.40;;;4.40;;
20525;SDS011;10421;49.142;9.232;2023-10-13T10:54:44;19.90;;;4.70;;
20525;SDS011;10421;49.142;9.232;2023-10-13T10:57:17;11.43;;;4.37;;
20525;SDS011;10421;49.142;9.232;2023-10-13T10:59:43;26.60;;;5.17;;
20525;SDS011;10421;49.142;9.232;2023-10-13T11:02:11;12.00;;;4.40;;
20525;SDS011;10421;49.142;9.232;2023-10-13T11:04:43;26.77;;;5.90;;
20525;SDS011;10421;49.142;9.232;2023-10-13T11:07:22;19.60;;;4.63;;
20525;SDS011;10421;49.142;9.232;2023-10-13T11:09:49;20.63;;;5.07;;
20525;SDS011;10421;49.142;9.232;2023-10-13T11:12:18;26.80;;;5.93;;
20525;SDS011;10421;49.142;9.232;2023-10-13T11:14:59;23.60;;;5.27;;
20525;SDS011;10421;49.142;9.232;2023-10-13T11:17:27;23.93;;;5.60;;
20525;SDS011;10421;49.142;9.232;2023-10-13T11:20:10;20.80;;;5.67;;
20525;SDS011;10421;49.142;9.232;2023-10-13T11:22:52;16.23;;;4.87;;
20525;SDS011;10421;49.142;9.232;2023-10-13T11:25:20;14.20;;;4.47;;
20525;SDS011;10421;49.142;9.232;2023-10-13T11:28:09;17.27;;;4.70;;
20525;SDS011;10421;49.142;9.232;2023-10-13T11:30:42;17.10;;;5.13;;
20525;SDS011;10421;49.142;9.232;2023-10-13T11:33:14;13.87;;;4.50;;
20525;SDS011;10421;49.142;9.232;2023-10-13T11:35:43;14.53;;;4.37;;
20525;SDS011;10421;49.142;9.232;2023-10-13T11:38:23;16.40;;;4.40;;
20525;SDS011;10421;49.142;9.232;2023-10-13T11:40:54;13.63;;;4.50;;
20525;SDS011;10421;49.142;9.232;2023-10-13T11:43:48;15.97;;;4.57;;
20525;SDS011;10421;49.142;9.232;2023-10-13T11:46:48;18.50;;;5.00;;
20525;SDS011;10421;49.142;9.232;2023-10-13T11:49:21;12.93;;;4.23;;
20525;SDS011;10421;49.142;9.232;2023-10-13T11:52:02;14.67;;;4.87;;
20525;SDS011;10421;49.142;9.232;2023-10-13T11:54:42;19.60;;;5.30;;
20525;SDS011;10421;49.142;9.232;2023-10-13T11:57:08;10.53;;;4.47;;
20525;SDS011;10421;49.142;9.232;2023-10-13T11:59:35;16.40;;;5.00;;
20525;SDS011;10421;49.142;9.232;2023-10-13T12:02:09;14.33;;;4.00;;
20525;SDS011;10421;49.142;9.232;2023-10-13T12:04:55;21.20;;;5.43;;
20525;SDS011;10421;49.142;9.232;2023-10-13T12:07:24;18.83;;;5.30;;
20525;SDS011;10421;49.142;9.232;2023-10-13T12:10:07;23.10;;;5.60;;
20525;SDS011;10421;49.142;9.232;2023-10-13T12:12:40;14.17;;;4.80;;
20525;SDS011;10421;49.142;9.232;2023-10-13T12:15:08;11.97;;;4.30;;
20525;SDS011;10421;49.142;9.232;2023-10-13T12:17:50;10.30;;;4.60;;
20525;SDS011;10421;49.142;9.232;2023-10-13T12:20:16;18.60;;;4.63;;
20525;SDS011;10421;49.142;9.232;2023-10-13T12:22:57;16.77;;;4.20;;
20525;SDS011;10421;49.142;9.232;2023-10-13T12:25:36;9.70;;;3.93;;
20525;SDS011;10421;49.142;9.232;2023-10-13T12:28:19;17.93;;;4.40;;
20525;SDS011;10421;49.142;9.232;2023-10-13T12:30:48;23.43;;;5.47;;
20525;SDS011;10421;49.142;9.232;2023-10-13T12:33:17;18.03;;;4.90;;
20525;SDS011;10421;49.142;9.232;2023-10-13T12:35:50;8.10;;;3.67;;
20525;SDS011;10421;49.142;9.232;2023-10-13T12:38:28;14.53;;;3.87;;
20525;SDS011;10421;49.142;9.232;2023-10-13T12:41:17;16.73;;;4.43;;
20525;SDS011;10421;49.142;9.232;2023-10-13T12:44:03;17.50;;;4.87;;
20525;SDS011;10421;49.142;9.232;2023-10-13T12:46:47;18.00;;;4.20;;
20525;SDS011;10421;49.142;9.232;2023-10-13T12:49:32;14.37;;;4.40;;
20525;SDS011;10421;49.142;9.232;2023-10-13T12:52:14;12.07;;;3.93;;
20525;SDS011;10421;49.142;9.232;2023-10-13T12:54:44;17.23;;;4.80;;
20525;SDS011;10421;49.142;9.232;2023-10-13T12:57:14;13.57;;;4.10;;
20525;SDS011;10421;49.142;9.232;2023-10-13T12:59:40;11.77;;;3.47;;
20525;SDS011;10421;49.142;9.232;2023-10-13T13:02:07;21.63;;;5.07;;
20525;SDS011;10421;49.142;9.232;2023-10-13T13:04:39;14.70;;;3.80;;
20525;SDS011;10421;49.142;9.232;2023-10-13T13:07:09;12.33;;;3.50;;
20525;SDS011;10421;49.142;9.232;2023-10-13T13:09:38;12.93;;;3.23;;
20525;SDS011;10421;49.142;9.232;2023-10-13T13:12:05;22.97;;;5.50;;
20525;SDS011;10421;49.142;9.232;2023-10-13T13:14:33;19.20;;;4.33;;
20525;SDS011;10421;49.142;9.232;2023-10-13T13:17:00;15.93;;;4.20;;
20525;SDS011;10421;49.142;9.232;2023-10-13T13:19:30;18.33;;;4.70;;
20525;SDS011;10421;49.142;9.232;2023-10-13T13:22:01;10.17;;;3.40;;
20525;SDS011;10421;49.142;9.232;2023-10-13T13:24:28;20.77;;;5.00;;
20525;SDS011;10421;49.142;9.232;2023-10-13T13:26:55;13.27;;;3.93;;
20525;SDS011;10421;49.142;9.232;2023-10-13T13:29:27;17.70;;;4.47;;
20525;SDS011;10421;49.142;9.232;2023-10-13T13:31:55;18.63;;;4.80;;
20525;SDS011;10421;49.142;9.232;2023-10-13T13:34:22;12.43;;;4.03;;
20525;SDS011;10421;49.142;9.232;2023-10-13T13:36:49;12.53;;;4.00;;
20525;SDS011;10421;49.142;9.232;2023-10-13T13:39:18;18.67;;;4.60;;
20525;SDS011;10421;49.142;9.232;2023-10-13T13:41:53;11.40;;;3.57;;
20525;SDS011;10421;49.142;9.232;2023-10-13T13:44:22;21.57;;;5.07;;
20525;SDS011;10421;49.142;9.232;2023-10-13T13:46:55;24.20;;;5.53;;
20525;SDS011;10421;49.142;9.232;2023-10-13T13:49:22;16.87;;;4.00;;
20525;SDS011;10421;49.142;9.232;2023-10-13T13:52:04;16.80;;;4.10;;
20525;SDS011;10421;49.142;9.232;2023-10-13T13:54:31;16.60;;;4.23;;
20525;SDS011;10421;49.142;9.232;2023-10-13T13:56:58;20.40;;;4.77;;
20525;SDS011;10421;49.142;9.232;2023-10-13T13:59:25;24.33;;;5.17;;
20525;SDS011;10421;49.142;9.232;2023-10-13T14:02:00;20.70;;;4.97;;
20525;SDS011;10421;49.142;9.232;2023-10-13T14:04:31;13.13;;;3.93;;
20525;SDS011;10421;49.142;9.232;2023-10-13T14:06:58;9.87;;;3.50;;
20525;SDS011;10421;49.142;9.232;2023-10-13T14:09:31;14.10;;;3.87;;
20525;SDS011;10421;49.142;9.232;2023-10-13T14:12:00;12.30;;;3.60;;
20525;SDS011;10421;49.142;9.232;2023-10-13T14:14:45;28.67;;;5.97;;
20525;SDS011;10421;49.142;9.232;2023-10-13T14:17:17;17.67;;;4.63;;
20525;SDS011;10421;49.142;9.232;2023-10-13T14:19:44;20.80;;;4.73;;
20525;SDS011;10421;49.142;9.232;2023-10-13T14:22:10;12.70;;;3.60;;
20525;SDS011;10421;49.142;9.232;2023-10-13T14:24:38;15.67;;;4.07;;
20525;SDS011;10421;49.142;9.232;2023-10-13T14:27:12;18.53;;;4.70;;
20525;SDS011;10421;49.142;9.232;2023-10-13T14:29:42;19.93;;;4.60;;
20525;SDS011;10421;49.142;9.232;2023-10-13T14:32:09;24.03;;;5.20;;
20525;SDS011;10421;49.142;9.232;2023-10-13T14:34:40;29.20;;;5.23;;
20525;SDS011;10421;49.142;9.232;2023-10-13T14:37:07;12.30;;;4.17;;
20525;SDS011;10421;49.142;9.232;2023-10-13T14:39:37;36.97;;;6.47;;
20525;SDS011;10421;49.142;9.232;2023-10-13T14:42:04;11.43;;;3.83;;
20525;SDS011;10421;49.142;9.232;2023-10-13T14:44:31;13.40;;;3.37;;
20525;SDS011;10421;49.142;9.232;2023-10-13T14:46:58;14.10;;;4.10;;
20525;SDS011;10421;49.142;9.232;2023-10-13T14:49:25;33.67;;;6.00;;
20525;SDS011;10421;49.142;9.232;2023-10-13T14:51:53;23.23;;;5.13;;
20525;SDS011;10421;49.142;9.232;2023-10-13T14:54:21;12.63;;;3.80;;
20525;SDS011;10421;49.142;9.232;2023-10-13T14:56:57;10.93;;;3.80;;
20525;SDS011;10421;49.142;9.232;2023-10-13T14:59:25;24.50;;;4.87;;
20525;SDS011;10421;49.142;9.232;2023-10-13T15:01:52;14.23;;;3.90;;
20525;SDS011;10421;49.142;9.232;2023-10-13T15:04:19;18.10;;;3.97;;
20525;SDS011;10421;49.142;9.232;2023-10-13T15:06:49;15.97;;;4.13;;
20525;SDS011;10421;49.142;9.232;2023-10-13T15:09:17;17.13;;;4.47;;
20525;SDS011;10421;49.142;9.232;2023-10-13T15:11:48;30.70;;;6.30;;
20525;SDS011;10421;49.142;9.232;2023-10-13T15:14:18;17.27;;;4.93;;
20525;SDS011;10421;49.142;9.232;2023-10-13T15:16:47;10.30;;;3.20;;